sensor_id;sensor_type;location;lat;lon;timestamp;pressure;altitude;pressure_sealevel;temperature;humidity
61357;BME280;47227;46.752;23.576;2023-04-25T00:00:48;95315.83;;;10.40;83.94
61357;BME280;47227;46.752;23.576;2023-04-25T00:03:41;95312.00;;;10.42;84.56
61357;BME280;47227;46.752;23.576;2023-04-25T00:07:44;95311.60;;;10.48;84.04
61357;BME280;47227;46.752;23.576;2023-04-25T00:11:24;95303.55;;;10.53;86.23
61357;BME280;47227;46.752;23.576;2023-04-25T00:14:48;95299.35;;;10.56;85.74
61357;BME280;47227;46.752;23.576;2023-04-25T00:18:44;95293.97;;;10.61;86.09
61357;BME280;47227;46.752;23.576;2023-04-25T00:23:01;95291.80;;;10.65;87.17
61357;BME280;47227;46.752;23.576;2023-04-25T00:27:06;95284.83;;;10.72;86.15
61357;BME280;47227;46.752;23.576;2023-04-25T00:30:54;95281.65;;;10.77;85.82
61357;BME280;47227;46.752;23.576;2023-04-25T00:37:10;95274.47;;;10.76;86.87
61357;BME280;47227;46.752;23.576;2023-04-25T00:40:04;95274.19;;;10.73;86.46
61357;BME280;47227;46.752;23.576;2023-04-25T00:43:10;95273.05;;;10.69;86.25
61357;BME280;47227;46.752;23.576;2023-04-25T00:46:00;95269.08;;;10.65;85.53
61357;BME280;47227;46.752;23.576;2023-04-25T00:48:49;95262.77;;;10.63;85.62
61357;BME280;47227;46.752;23.576;2023-04-25T00:51:44;95262.69;;;10.56;87.61
61357;BME280;47227;46.752;23.576;2023-04-25T00:54:33;95257.58;;;10.50;88.85
61357;BME280;47227;46.752;23.576;2023-04-25T00:57:22;95260.70;;;10.47;89.42
61357;BME280;47227;46.752;23.576;2023-04-25T00:59:58;95257.86;;;10.40;89.32
61357;BME280;47227;46.752;23.576;2023-04-25T01:02:44;95257.88;;;10.36;88.14
61357;BME280;47227;46.752;23.576;2023-04-25T01:05:59;95252.95;;;10.34;87.25
61357;BME280;47227;46.752;23.576;2023-04-25T01:09:08;95254.04;;;10.35;86.80
61357;BME280;47227;46.752;23.576;2023-04-25T01:12:19;95252.73;;;10.38;86.82
61357;BME280;47227;46.752;23.576;2023-04-25T01:15:07;95251.50;;;10.40;86.71
61357;BME280;47227;46.752;23.576;2023-04-25T01:18:05;95247.81;;;10.44;86.66
61357;BME280;47227;46.752;23.576;2023-04-25T01:21:09;95246.07;;;10.47;86.65
61357;BME280;47227;46.752;23.576;2023-04-25T01:24:41;95249.73;;;10.51;86.81
61357;BME280;47227;46.752;23.576;2023-04-25T01:27:37;95247.58;;;10.55;86.80
61357;BME280;47227;46.752;23.576;2023-04-25T01:30:33;95248.70;;;10.56;86.43
61357;BME280;47227;46.752;23.576;2023-04-25T01:33:42;95246.23;;;10.56;86.22
61357;BME280;47227;46.752;23.576;2023-04-25T01:40:57;95245.06;;;10.58;87.20
61357;BME280;47227;46.752;23.576;2023-04-25T01:55:19;95230.63;;;10.43;86.54
61357;BME280;47227;46.752;23.576;2023-04-25T01:58:41;95235.42;;;10.38;86.54
61357;BME280;47227;46.752;23.576;2023-04-25T02:09:05;95219.61;;;10.20;87.67
61357;BME280;47227;46.752;23.576;2023-04-25T02:12:17;95217.37;;;10.16;87.03
61357;BME280;47227;46.752;23.576;2023-04-25T02:41:34;95216.17;;;10.32;90.38
61357;BME280;47227;46.752;23.576;2023-04-25T03:04:15;95206.06;;;10.48;89.52
61357;BME280;47227;46.752;23.576;2023-04-25T03:07:13;95207.35;;;10.32;90.67
61357;BME280;47227;46.752;23.576;2023-04-25T03:15:10;95207.31;;;10.16;91.37
61357;BME280;47227;46.752;23.576;2023-04-25T03:18:41;95205.59;;;10.14;91.71
61357;BME280;47227;46.752;23.576;2023-04-25T03:38:37;95191.59;;;10.15;89.98
61357;BME280;47227;46.752;23.576;2023-04-25T03:41:55;95192.88;;;10.17;90.37
61357;BME280;47227;46.752;23.576;2023-04-25T03:48:33;95189.98;;;10.25;89.86
61357;BME280;47227;46.752;23.576;2023-04-25T03:58:18;95188.20;;;10.52;89.52
61357;BME280;47227;46.752;23.576;2023-04-25T04:05:23;95187.65;;;10.70;89.02
61357;BME280;47227;46.752;23.576;2023-04-25T04:08:27;95186.17;;;10.78;88.97
61357;BME280;47227;46.752;23.576;2023-04-25T04:20:50;95186.33;;;10.85;88.01
61357;BME280;47227;46.752;23.576;2023-04-25T04:28:03;95187.23;;;10.77;87.33
61357;BME280;47227;46.752;23.576;2023-04-25T04:31:25;95188.02;;;10.72;88.34
61357;BME280;47227;46.752;23.576;2023-04-25T04:37:34;95193.60;;;10.67;87.38
61357;BME280;47227;46.752;23.576;2023-04-25T04:44:13;95189.20;;;10.59;88.02
61357;BME280;47227;46.752;23.576;2023-04-25T04:54:07;95190.49;;;10.37;93.37
61357;BME280;47227;46.752;23.576;2023-04-25T04:56:50;95195.98;;;10.50;91.88
61357;BME280;47227;46.752;23.576;2023-04-25T04:59:32;95193.27;;;10.62;92.04
61357;BME280;47227;46.752;23.576;2023-04-25T05:02:09;95185.76;;;10.64;92.57
61357;BME280;47227;46.752;23.576;2023-04-25T05:04:55;95182.43;;;10.60;92.28
61357;BME280;47227;46.752;23.576;2023-04-25T05:07:35;95181.11;;;10.60;92.97
61357;BME280;47227;46.752;23.576;2023-04-25T05:10:14;95179.56;;;10.65;92.76
61357;BME280;47227;46.752;23.576;2023-04-25T05:13:04;95180.02;;;10.73;92.19
61357;BME280;47227;46.752;23.576;2023-04-25T05:15:44;95177.41;;;10.77;91.23
61357;BME280;47227;46.752;23.576;2023-04-25T05:18:33;95176.87;;;10.86;91.28
61357;BME280;47227;46.752;23.576;2023-04-25T05:21:14;95178.28;;;10.99;90.48
61357;BME280;47227;46.752;23.576;2023-04-25T05:23:57;95174.86;;;11.12;90.19
61357;BME280;47227;46.752;23.576;2023-04-25T05:26:45;95174.77;;;11.26;89.81
61357;BME280;47227;46.752;23.576;2023-04-25T05:29:27;95172.30;;;11.37;89.09
61357;BME280;47227;46.752;23.576;2023-04-25T05:32:14;95170.20;;;11.37;88.34
61357;BME280;47227;46.752;23.576;2023-04-25T05:34:43;95173.84;;;11.46;88.41
61357;BME280;47227;46.752;23.576;2023-04-25T05:37:31;95172.55;;;11.53;88.01
61357;BME280;47227;46.752;23.576;2023-04-25T05:40:16;95169.96;;;11.55;87.41
61357;BME280;47227;46.752;23.576;2023-04-25T05:42:57;95168.50;;;11.59;87.16
61357;BME280;47227;46.752;23.576;2023-04-25T05:45:37;95168.84;;;11.64;87.19
61357;BME280;47227;46.752;23.576;2023-04-25T05:48:22;95160.84;;;11.71;86.94
61357;BME280;47227;46.752;23.576;2023-04-25T05:51:16;95157.81;;;11.78;86.82
61357;BME280;47227;46.752;23.576;2023-04-25T05:54:00;95157.02;;;11.82;86.45
61357;BME280;47227;46.752;23.576;2023-04-25T05:56:30;95158.20;;;11.84;85.95
61357;BME280;47227;46.752;23.576;2023-04-25T05:59:01;95152.00;;;11.87;85.96
61357;BME280;47227;46.752;23.576;2023-04-25T06:01:30;95157.48;;;11.94;85.91
61357;BME280;47227;46.752;23.576;2023-04-25T06:03:59;95161.16;;;12.02;85.69
61357;BME280;47227;46.752;23.576;2023-04-25T06:06:34;95166.20;;;12.07;85.47
61357;BME280;47227;46.752;23.576;2023-04-25T06:09:11;95166.43;;;12.09;84.87
61357;BME280;47227;46.752;23.576;2023-04-25T06:11:41;95166.23;;;12.11;84.52
61357;BME280;47227;46.752;23.576;2023-04-25T06:14:10;95166.02;;;12.16;84.64
61357;BME280;47227;46.752;23.576;2023-04-25T06:16:42;95162.44;;;12.21;83.87
61357;BME280;47227;46.752;23.576;2023-04-25T06:19:13;95160.64;;;12.29;84.31
61357;BME280;47227;46.752;23.576;2023-04-25T06:21:43;95159.40;;;12.38;84.11
61357;BME280;47227;46.752;23.576;2023-04-25T06:24:12;95158.73;;;12.44;83.59
61357;BME280;47227;46.752;23.576;2023-04-25T06:26:45;95152.61;;;12.53;83.64
61357;BME280;47227;46.752;23.576;2023-04-25T06:29:13;95150.54;;;12.64;83.35
61357;BME280;47227;46.752;23.576;2023-04-25T06:31:52;95152.22;;;12.68;82.72
61357;BME280;47227;46.752;23.576;2023-04-25T06:34:27;95152.45;;;12.67;81.94
61357;BME280;47227;46.752;23.576;2023-04-25T06:36:59;95151.32;;;12.72;82.18
61357;BME280;47227;46.752;23.576;2023-04-25T06:39:34;95151.88;;;12.79;82.08
61357;BME280;47227;46.752;23.576;2023-04-25T06:42:06;95145.52;;;12.85;82.11
61357;BME280;47227;46.752;23.576;2023-04-25T06:44:41;95149.05;;;12.91;82.03
61357;BME280;47227;46.752;23.576;2023-04-25T06:47:16;95150.93;;;12.95;81.85
61357;BME280;47227;46.752;23.576;2023-04-25T06:49:49;95149.30;;;12.88;81.44
61357;BME280;47227;46.752;23.576;2023-04-25T06:52:36;95148.95;;;12.75;81.55
61357;BME280;47227;46.752;23.576;2023-04-25T06:55:28;95152.09;;;12.63;81.72
61357;BME280;47227;46.752;23.576;2023-04-25T06:58:09;95152.68;;;12.48;82.53
61357;BME280;47227;46.752;23.576;2023-04-25T07:01:01;95151.85;;;12.51;82.23
61357;BME280;47227;46.752;23.576;2023-04-25T07:03:42;95154.20;;;12.55;82.28
61357;BME280;47227;46.752;23.576;2023-04-25T07:06:17;95151.40;;;12.63;82.24
61357;BME280;47227;46.752;23.576;2023-04-25T07:08:51;95150.48;;;12.71;82.39
61357;BME280;47227;46.752;23.576;2023-04-25T07:11:23;95152.02;;;12.77;82.02
61357;BME280;47227;46.752;23.576;2023-04-25T07:14:06;95146.80;;;12.85;82.93
61357;BME280;47227;46.752;23.576;2023-04-25T07:17:04;95144.17;;;12.84;83.04
61357;BME280;47227;46.752;23.576;2023-04-25T07:19:45;95139.39;;;12.89;83.18
61357;BME280;47227;46.752;23.576;2023-04-25T07:22:17;95138.91;;;12.90;83.02
61357;BME280;47227;46.752;23.576;2023-04-25T07:24:56;95139.61;;;12.99;82.88
61357;BME280;47227;46.752;23.576;2023-04-25T07:27:38;95143.92;;;13.11;82.66
61357;BME280;47227;46.752;23.576;2023-04-25T07:30:23;95137.76;;;13.19;82.05
61357;BME280;47227;46.752;23.576;2023-04-25T07:33:01;95138.61;;;13.26;82.07
61357;BME280;47227;46.752;23.576;2023-04-25T07:35:40;95132.37;;;13.27;82.17
61357;BME280;47227;46.752;23.576;2023-04-25T07:38:24;95131.55;;;13.23;83.36
61357;BME280;47227;46.752;23.576;2023-04-25T07:41:07;95134.20;;;13.31;83.06
61357;BME280;47227;46.752;23.576;2023-04-25T07:43:56;95136.39;;;13.42;82.43
61357;BME280;47227;46.752;23.576;2023-04-25T07:47:06;95131.88;;;13.46;82.02
61357;BME280;47227;46.752;23.576;2023-04-25T07:49:47;95129.89;;;13.40;81.99
61357;BME280;47227;46.752;23.576;2023-04-25T07:52:32;95127.04;;;13.37;82.49
61357;BME280;47227;46.752;23.576;2023-04-25T07:55:19;95124.90;;;13.44;82.08
61357;BME280;47227;46.752;23.576;2023-04-25T07:58:06;95124.30;;;13.45;82.13
61357;BME280;47227;46.752;23.576;2023-04-25T08:00:43;95120.98;;;13.51;82.01
61357;BME280;47227;46.752;23.576;2023-04-25T08:03:46;95122.54;;;13.60;82.25
61357;BME280;47227;46.752;23.576;2023-04-25T08:06:22;95126.06;;;13.68;82.11
61357;BME280;47227;46.752;23.576;2023-04-25T08:09:08;95125.54;;;13.76;82.35
61357;BME280;47227;46.752;23.576;2023-04-25T08:11:49;95119.86;;;13.70;83.01
61357;BME280;47227;46.752;23.576;2023-04-25T08:14:32;95119.42;;;13.83;82.65
61357;BME280;47227;46.752;23.576;2023-04-25T08:17:31;95118.92;;;14.02;82.38
61357;BME280;47227;46.752;23.576;2023-04-25T08:20:02;95118.36;;;14.09;83.22
61357;BME280;47227;46.752;23.576;2023-04-25T08:22:39;95115.64;;;14.11;82.98
61357;BME280;47227;46.752;23.576;2023-04-25T08:25:29;95117.33;;;14.25;82.74
61357;BME280;47227;46.752;23.576;2023-04-25T08:27:58;95118.80;;;14.37;82.23
61357;BME280;47227;46.752;23.576;2023-04-25T08:30:31;95114.80;;;14.34;81.96
61357;BME280;47227;46.752;23.576;2023-04-25T08:33:01;95118.15;;;14.46;82.55
61357;BME280;47227;46.752;23.576;2023-04-25T08:35:48;95118.98;;;14.68;81.77
61357;BME280;47227;46.752;23.576;2023-04-25T08:38:26;95119.57;;;14.68;81.35
61357;BME280;47227;46.752;23.576;2023-04-25T08:40:56;95117.87;;;14.75;81.01
61357;BME280;47227;46.752;23.576;2023-04-25T08:43:29;95114.97;;;14.79;81.38
61357;BME280;47227;46.752;23.576;2023-04-25T08:46:03;95113.75;;;14.88;80.57
61357;BME280;47227;46.752;23.576;2023-04-25T08:48:44;95116.41;;;15.10;80.93
61357;BME280;47227;46.752;23.576;2023-04-25T08:51:22;95112.84;;;15.19;80.12
61357;BME280;47227;46.752;23.576;2023-04-25T08:53:53;95109.39;;;15.44;80.35
61357;BME280;47227;46.752;23.576;2023-04-25T08:56:38;95113.90;;;15.70;79.87
61357;BME280;47227;46.752;23.576;2023-04-25T08:59:08;95107.52;;;15.62;79.06
61357;BME280;47227;46.752;23.576;2023-04-25T09:01:42;95107.42;;;15.61;79.45
61357;BME280;47227;46.752;23.576;2023-04-25T09:04:46;95104.30;;;15.58;78.65
61357;BME280;47227;46.752;23.576;2023-04-25T09:08:17;95104.77;;;15.67;77.92
61357;BME280;47227;46.752;23.576;2023-04-25T09:11:46;95104.71;;;15.62;78.80
61357;BME280;47227;46.752;23.576;2023-04-25T09:14:22;95102.03;;;15.61;77.25
61357;BME280;47227;46.752;23.576;2023-04-25T09:17:07;95099.09;;;15.49;77.68
61357;BME280;47227;46.752;23.576;2023-04-25T09:19:47;95096.64;;;15.44;77.57
61357;BME280;47227;46.752;23.576;2023-04-25T09:22:21;95089.59;;;15.27;77.53
61357;BME280;47227;46.752;23.576;2023-04-25T09:24:50;95087.48;;;15.13;78.40
61357;BME280;47227;46.752;23.576;2023-04-25T09:27:21;95083.89;;;14.87;78.42
61357;BME280;47227;46.752;23.576;2023-04-25T09:29:57;95082.55;;;14.90;78.41
61357;BME280;47227;46.752;23.576;2023-04-25T09:32:34;95078.50;;;14.95;78.75
61357;BME280;47227;46.752;23.576;2023-04-25T09:35:02;95077.29;;;15.05;77.79
61357;BME280;47227;46.752;23.576;2023-04-25T09:37:35;95078.38;;;15.08;76.43
61357;BME280;47227;46.752;23.576;2023-04-25T09:40:22;95080.23;;;15.30;75.20
61357;BME280;47227;46.752;23.576;2023-04-25T09:42:58;95079.19;;;15.39;74.80
61357;BME280;47227;46.752;23.576;2023-04-25T09:45:29;95076.84;;;15.60;73.91
61357;BME280;47227;46.752;23.576;2023-04-25T09:48:03;95075.42;;;15.51;72.10
61357;BME280;47227;46.752;23.576;2023-04-25T09:51:26;95071.19;;;15.44;70.68
61357;BME280;47227;46.752;23.576;2023-04-25T09:53:56;95068.70;;;15.44;70.30
61357;BME280;47227;46.752;23.576;2023-04-25T09:56:36;95065.72;;;15.44;70.83
61357;BME280;47227;46.752;23.576;2023-04-25T09:59:08;95067.00;;;15.49;71.55
61357;BME280;47227;46.752;23.576;2023-04-25T10:01:39;95057.35;;;15.54;70.44
61357;BME280;47227;46.752;23.576;2023-04-25T10:04:12;95053.78;;;15.64;70.17
61357;BME280;47227;46.752;23.576;2023-04-25T10:06:48;95052.23;;;15.75;70.47
61357;BME280;47227;46.752;23.576;2023-04-25T10:09:20;95050.01;;;15.91;69.01
61357;BME280;47227;46.752;23.576;2023-04-25T10:12:08;95049.77;;;16.01;68.78
61357;BME280;47227;46.752;23.576;2023-04-25T10:15:15;95046.21;;;16.20;67.46
61357;BME280;47227;46.752;23.576;2023-04-25T10:18:02;95044.11;;;16.25;65.88
61357;BME280;47227;46.752;23.576;2023-04-25T10:20:59;95034.86;;;16.21;64.58
61357;BME280;47227;46.752;23.576;2023-04-25T10:23:36;95027.89;;;16.21;63.97
61357;BME280;47227;46.752;23.576;2023-04-25T10:26:08;95022.34;;;16.26;64.68
61357;BME280;47227;46.752;23.576;2023-04-25T10:31:59;95017.75;;;16.03;64.64
61357;BME280;47227;46.752;23.576;2023-04-25T10:34:43;95018.88;;;15.89;64.26
61357;BME280;47227;46.752;23.576;2023-04-25T10:37:33;95013.61;;;15.81;64.40
61357;BME280;47227;46.752;23.576;2023-04-25T10:40:10;95010.02;;;15.76;65.36
61357;BME280;47227;46.752;23.576;2023-04-25T10:42:47;94994.27;;;15.74;64.83
61357;BME280;47227;46.752;23.576;2023-04-25T10:45:28;94999.22;;;15.82;63.05
61357;BME280;47227;46.752;23.576;2023-04-25T10:48:00;94999.56;;;15.81;62.80
61357;BME280;47227;46.752;23.576;2023-04-25T10:50:43;94997.39;;;15.80;62.33
61357;BME280;47227;46.752;23.576;2023-04-25T10:53:24;95000.86;;;15.81;62.31
61357;BME280;47227;46.752;23.576;2023-04-25T10:55:54;95003.05;;;15.71;63.01
61357;BME280;47227;46.752;23.576;2023-04-25T10:58:35;95005.16;;;15.68;62.58
61357;BME280;47227;46.752;23.576;2023-04-25T11:01:06;95006.48;;;15.67;62.85
61357;BME280;47227;46.752;23.576;2023-04-25T11:03:42;95018.48;;;15.72;63.58
61357;BME280;47227;46.752;23.576;2023-04-25T11:06:44;95028.59;;;15.70;63.60
61357;BME280;47227;46.752;23.576;2023-04-25T11:09:37;95028.97;;;15.60;59.77
61357;BME280;47227;46.752;23.576;2023-04-25T11:12:10;95024.24;;;15.45;58.37
61357;BME280;47227;46.752;23.576;2023-04-25T11:14:44;95020.05;;;15.28;57.43
61357;BME280;47227;46.752;23.576;2023-04-25T11:17:13;95024.55;;;15.14;57.96
61357;BME280;47227;46.752;23.576;2023-04-25T11:24:04;95030.99;;;14.64;62.28
61357;BME280;47227;46.752;23.576;2023-04-25T11:27:27;95031.70;;;14.34;62.91
61357;BME280;47227;46.752;23.576;2023-04-25T11:30:48;95033.91;;;14.21;63.75
61357;BME280;47227;46.752;23.576;2023-04-25T11:33:28;95037.92;;;14.03;64.65
61357;BME280;47227;46.752;23.576;2023-04-25T11:36:07;95044.70;;;13.76;66.10
61357;BME280;47227;46.752;23.576;2023-04-25T11:38:53;95046.83;;;13.42;67.91
61357;BME280;47227;46.752;23.576;2023-04-25T11:41:25;95046.16;;;13.18;68.82
61357;BME280;47227;46.752;23.576;2023-04-25T11:43:54;95042.36;;;13.08;69.20
61357;BME280;47227;46.752;23.576;2023-04-25T11:46:24;95036.55;;;13.06;69.31
61357;BME280;47227;46.752;23.576;2023-04-25T11:48:55;95035.66;;;13.09;69.90
61357;BME280;47227;46.752;23.576;2023-04-25T11:51:24;95033.53;;;13.10;69.70
61357;BME280;47227;46.752;23.576;2023-04-25T11:53:53;95032.14;;;13.11;69.65
61357;BME280;47227;46.752;23.576;2023-04-25T11:56:22;95030.80;;;13.15;69.49
61357;BME280;47227;46.752;23.576;2023-04-25T11:58:58;95025.34;;;13.22;69.41
61357;BME280;47227;46.752;23.576;2023-04-25T12:01:32;95025.95;;;13.32;69.91
61357;BME280;47227;46.752;23.576;2023-04-25T12:04:21;95026.66;;;13.43;69.97
61357;BME280;47227;46.752;23.576;2023-04-25T12:06:52;95023.24;;;13.54;69.83
61357;BME280;47227;46.752;23.576;2023-04-25T12:09:30;95025.85;;;13.65;69.56
61357;BME280;47227;46.752;23.576;2023-04-25T12:12:00;95025.39;;;13.72;70.02
61357;BME280;47227;46.752;23.576;2023-04-25T12:14:33;95021.68;;;13.80;70.10
61357;BME280;47227;46.752;23.576;2023-04-25T12:17:04;95016.03;;;13.85;69.80
61357;BME280;47227;46.752;23.576;2023-04-25T12:19:37;95013.99;;;13.86;69.98
61357;BME280;47227;46.752;23.576;2023-04-25T12:22:22;95010.63;;;13.97;69.67
61357;BME280;47227;46.752;23.576;2023-04-25T12:24:51;95008.06;;;14.06;68.42
61357;BME280;47227;46.752;23.576;2023-04-25T12:27:21;95001.91;;;14.09;68.14
61357;BME280;47227;46.752;23.576;2023-04-25T12:29:56;94999.58;;;14.17;68.76
61357;BME280;47227;46.752;23.576;2023-04-25T12:32:24;94995.17;;;14.33;68.88
61357;BME280;47227;46.752;23.576;2023-04-25T12:34:56;94987.89;;;14.41;68.72
61357;BME280;47227;46.752;23.576;2023-04-25T12:37:30;94982.81;;;14.42;68.19
61357;BME280;47227;46.752;23.576;2023-04-25T12:40:00;94979.61;;;14.48;67.12
61357;BME280;47227;46.752;23.576;2023-04-25T12:45:29;94979.92;;;14.45;68.25
61357;BME280;47227;46.752;23.576;2023-04-25T12:48:05;94981.64;;;14.58;68.23
61357;BME280;47227;46.752;23.576;2023-04-25T12:52:22;94986.09;;;14.68;66.39
61357;BME280;47227;46.752;23.576;2023-04-25T12:55:28;94986.13;;;14.70;66.55
61357;BME280;47227;46.752;23.576;2023-04-25T12:58:05;94986.07;;;14.78;66.75
61357;BME280;47227;46.752;23.576;2023-04-25T13:00:44;94992.85;;;14.89;66.67
61357;BME280;47227;46.752;23.576;2023-04-25T13:03:14;94993.21;;;14.97;66.78
61357;BME280;47227;46.752;23.576;2023-04-25T13:05:43;94992.11;;;15.03;66.25
61357;BME280;47227;46.752;23.576;2023-04-25T13:08:15;94993.31;;;15.00;65.79
61357;BME280;47227;46.752;23.576;2023-04-25T13:10:43;94992.58;;;15.00;65.80
61357;BME280;47227;46.752;23.576;2023-04-25T13:13:12;94994.71;;;14.99;65.67
61357;BME280;47227;46.752;23.576;2023-04-25T13:15:40;94994.13;;;14.91;65.24
61357;BME280;47227;46.752;23.576;2023-04-25T13:18:08;94990.65;;;14.81;65.39
61357;BME280;47227;46.752;23.576;2023-04-25T13:20:37;94990.98;;;14.74;65.71
61357;BME280;47227;46.752;23.576;2023-04-25T13:23:05;94995.55;;;14.63;65.94
61357;BME280;47227;46.752;23.576;2023-04-25T13:25:33;95001.83;;;14.55;66.09
61357;BME280;47227;46.752;23.576;2023-04-25T13:28:04;95005.62;;;14.48;66.16
61357;BME280;47227;46.752;23.576;2023-04-25T13:30:32;95004.14;;;14.39;66.46
61357;BME280;47227;46.752;23.576;2023-04-25T13:33:01;95002.74;;;14.23;66.81
61357;BME280;47227;46.752;23.576;2023-04-25T13:35:37;94999.98;;;14.04;66.80
61357;BME280;47227;46.752;23.576;2023-04-25T13:39:03;95003.65;;;13.82;67.02
61357;BME280;47227;46.752;23.576;2023-04-25T13:41:33;95003.77;;;13.67;67.12
61357;BME280;47227;46.752;23.576;2023-04-25T13:44:12;95001.86;;;13.46;67.77
61357;BME280;47227;46.752;23.576;2023-04-25T13:46:41;95000.55;;;13.30;68.27
61357;BME280;47227;46.752;23.576;2023-04-25T13:49:14;95001.05;;;13.12;69.09
61357;BME280;47227;46.752;23.576;2023-04-25T13:51:43;95003.25;;;12.91;69.84
61357;BME280;47227;46.752;23.576;2023-04-25T13:54:13;95004.34;;;12.78;70.47
61357;BME280;47227;46.752;23.576;2023-04-25T13:56:45;95002.80;;;12.65;71.07
61357;BME280;47227;46.752;23.576;2023-04-25T13:59:21;95003.05;;;12.53;71.82
61357;BME280;47227;46.752;23.576;2023-04-25T14:01:56;95004.20;;;12.45;72.83
61357;BME280;47227;46.752;23.576;2023-04-25T14:04:36;95002.98;;;12.36;73.33
61357;BME280;47227;46.752;23.576;2023-04-25T14:07:06;95002.86;;;12.29;73.72
61357;BME280;47227;46.752;23.576;2023-04-25T14:09:35;95006.42;;;12.19;73.60
61357;BME280;47227;46.752;23.576;2023-04-25T14:12:05;95005.05;;;12.13;74.28
61357;BME280;47227;46.752;23.576;2023-04-25T14:14:34;95002.80;;;12.03;75.01
61357;BME280;47227;46.752;23.576;2023-04-25T14:17:04;95000.81;;;11.91;75.70
61357;BME280;47227;46.752;23.576;2023-04-25T14:19:35;94998.88;;;11.82;76.34
61357;BME280;47227;46.752;23.576;2023-04-25T14:22:14;95003.42;;;11.73;76.42
61357;BME280;47227;46.752;23.576;2023-04-25T14:24:50;95002.58;;;11.62;76.59
61357;BME280;47227;46.752;23.576;2023-04-25T14:27:37;94997.57;;;11.52;76.75
61357;BME280;47227;46.752;23.576;2023-04-25T14:30:19;95001.56;;;11.44;77.45
61357;BME280;47227;46.752;23.576;2023-04-25T14:33:08;94997.66;;;11.34;77.91
61357;BME280;47227;46.752;23.576;2023-04-25T14:36:24;94998.34;;;11.26;77.95
61357;BME280;47227;46.752;23.576;2023-04-25T14:39:09;94999.24;;;11.25;78.07
61357;BME280;47227;46.752;23.576;2023-04-25T14:41:40;94999.96;;;11.26;78.90
61357;BME280;47227;46.752;23.576;2023-04-25T14:44:09;95002.99;;;11.27;79.19
61357;BME280;47227;46.752;23.576;2023-04-25T14:46:42;95004.00;;;11.27;79.17
61357;BME280;47227;46.752;23.576;2023-04-25T14:54:38;95003.63;;;11.27;79.69
61357;BME280;47227;46.752;23.576;2023-04-25T14:57:39;95000.85;;;11.27;80.44
61357;BME280;47227;46.752;23.576;2023-04-25T15:00:16;95002.57;;;11.24;84.06
61357;BME280;47227;46.752;23.576;2023-04-25T15:02:51;95004.45;;;11.24;82.28
61357;BME280;47227;46.752;23.576;2023-04-25T15:05:24;95004.55;;;11.29;81.95
61357;BME280;47227;46.752;23.576;2023-04-25T15:07:52;95003.73;;;11.30;81.66
61357;BME280;47227;46.752;23.576;2023-04-25T15:10:22;95007.69;;;11.30;81.38
61357;BME280;47227;46.752;23.576;2023-04-25T15:12:50;95005.81;;;11.29;81.16
61357;BME280;47227;46.752;23.576;2023-04-25T15:15:18;95007.70;;;11.26;80.89
61357;BME280;47227;46.752;23.576;2023-04-25T15:17:53;95008.29;;;11.20;80.98
61357;BME280;47227;46.752;23.576;2023-04-25T15:20:25;95007.23;;;11.12;80.97
61357;BME280;47227;46.752;23.576;2023-04-25T15:22:55;95005.45;;;11.02;80.69
61357;BME280;47227;46.752;23.576;2023-04-25T15:25:26;95003.95;;;10.91;81.05
61357;BME280;47227;46.752;23.576;2023-04-25T15:27:57;95004.95;;;10.83;81.22
61357;BME280;47227;46.752;23.576;2023-04-25T15:30:26;95004.45;;;10.76;81.95
61357;BME280;47227;46.752;23.576;2023-04-25T15:32:55;95004.08;;;10.66;82.11
61357;BME280;47227;46.752;23.576;2023-04-25T15:35:23;95002.66;;;10.60;81.74
61357;BME280;47227;46.752;23.576;2023-04-25T15:37:52;94998.20;;;10.61;83.97
61357;BME280;47227;46.752;23.576;2023-04-25T15:40:20;95000.03;;;10.62;82.96
61357;BME280;47227;46.752;23.576;2023-04-25T15:42:50;94992.41;;;10.62;82.63
61357;BME280;47227;46.752;23.576;2023-04-25T15:45:21;94997.69;;;10.65;82.60
61357;BME280;47227;46.752;23.576;2023-04-25T15:47:55;94995.02;;;10.69;82.66
61357;BME280;47227;46.752;23.576;2023-04-25T15:50:25;94994.73;;;10.72;82.90
61357;BME280;47227;46.752;23.576;2023-04-25T15:52:54;94989.39;;;10.76;83.04
61357;BME280;47227;46.752;23.576;2023-04-25T15:55:24;94991.30;;;10.78;83.10
61357;BME280;47227;46.752;23.576;2023-04-25T15:57:53;94994.33;;;10.84;83.06
61357;BME280;47227;46.752;23.576;2023-04-25T16:00:22;94995.67;;;10.90;83.37
61357;BME280;47227;46.752;23.576;2023-04-25T16:02:50;94996.16;;;10.93;83.30
61357;BME280;47227;46.752;23.576;2023-04-25T16:05:19;94994.03;;;10.95;83.64
61357;BME280;47227;46.752;23.576;2023-04-25T16:07:47;94998.64;;;10.98;83.82
61357;BME280;47227;46.752;23.576;2023-04-25T16:10:18;95000.72;;;10.99;83.63
61357;BME280;47227;46.752;23.576;2023-04-25T16:12:49;95000.64;;;10.96;83.71
61357;BME280;47227;46.752;23.576;2023-04-25T16:15:17;94999.20;;;10.94;83.44
61357;BME280;47227;46.752;23.576;2023-04-25T16:17:45;94996.91;;;10.92;83.49
61357;BME280;47227;46.752;23.576;2023-04-25T16:20:14;94994.80;;;10.88;83.61
61357;BME280;47227;46.752;23.576;2023-04-25T16:22:42;94997.30;;;10.86;83.84
61357;BME280;47227;46.752;23.576;2023-04-25T16:25:11;95005.59;;;10.86;83.82
61357;BME280;47227;46.752;23.576;2023-04-25T16:27:39;95004.38;;;10.82;83.96
61357;BME280;47227;46.752;23.576;2023-04-25T16:30:09;95006.12;;;10.76;84.01
61357;BME280;47227;46.752;23.576;2023-04-25T16:33:12;95007.00;;;10.71;84.19
61357;BME280;47227;46.752;23.576;2023-04-25T16:35:41;95016.55;;;10.67;84.92
61357;BME280;47227;46.752;23.576;2023-04-25T16:38:09;95018.70;;;10.60;85.72
61357;BME280;47227;46.752;23.576;2023-04-25T16:40:37;95018.40;;;10.53;86.98
61357;BME280;47227;46.752;23.576;2023-04-25T16:43:05;95028.30;;;10.44;89.08